»·PEaware :: N576TB L88-KSBP

N576TB :: L88-KSBP

FLIGHT INFORMATION

Flight Status: Arrived
Operator: Privately registered:
United States
More flights under this callsign
Pilot: Anonymous 8274 (8274)
Aircraft: BEECH AIRCRAFT DEBONAIR BONANZA
(BE33)
More flights by this aircraft type
Origin: L88 New Cuyama
United States
Destination: KSBP San Luis Co Regl
United States
More flights between these airports :: More routes between these airports
Route: +
File this flight plan on PilotEdge
Remarks:
Altitude:
(Current/Filed)
6,500ft
Speed:
(Current/Filed)
160kts
Departed: 04-Nov-18 02:36 PM
Arrived: 04-Nov-18 03:20 PM
Distance/Time
Traveled:
50nm/0:44
Distance/Time
To Go:
Arrived

Flight Plot

Page will automatically refresh every two minutes.


Map Options




Map Legend


Flown Route
Filed Route
Departure Airport
Arrival Airport
Navaid (VOR, NDB)
Fix

Horizontal Profiles

Position Reports

Time Latitude Longitude Heading Altitude Ground
Speed
04-Nov-18 14:13 34.942793 -119.690969 26 2152ft 0kts
04-Nov-18 14:14 34.942793 -119.690969 26 2152ft 0kts
04-Nov-18 14:15 34.942793 -119.690969 26 2152ft 0kts
04-Nov-18 14:16 34.942793 -119.690969 26 2152ft 0kts
04-Nov-18 14:17 34.942793 -119.690969 26 2152ft 0kts
04-Nov-18 14:18 34.942793 -119.690969 26 2152ft 0kts
04-Nov-18 14:19 34.942793 -119.690969 26 2152ft 0kts
04-Nov-18 14:20 34.942793 -119.690969 26 2152ft 0kts
04-Nov-18 14:21 34.942793 -119.690969 26 2152ft 0kts
04-Nov-18 14:22 34.942793 -119.690969 26 2152ft 0kts
04-Nov-18 14:23 34.942793 -119.690969 26 2152ft 0kts
04-Nov-18 14:25 34.942793 -119.690969 26 2152ft 0kts
04-Nov-18 14:26 34.942793 -119.690969 26 2152ft 0kts
04-Nov-18 14:27 34.942793 -119.690969 26 2152ft 0kts
04-Nov-18 14:28 34.942793 -119.690969 26 2152ft 0kts
04-Nov-18 14:29 34.942793 -119.690969 26 2152ft 0kts
04-Nov-18 14:30 34.942793 -119.690969 26 2152ft 0kts
04-Nov-18 14:31 34.942783 -119.691181 201 2151ft 0kts
04-Nov-18 14:32 34.942783 -119.691181 201 2151ft 0kts
04-Nov-18 14:33 34.942783 -119.691181 201 2151ft 0kts
04-Nov-18 14:34 34.942783 -119.691181 201 2151ft 0kts
04-Nov-18 14:35 34.941524 -119.689409 118 2161ft 24kts
04-Nov-18 14:36 34.937731 -119.679964 113 2204ft 11kts
04-Nov-18 14:37 34.937645 -119.679997 296 2205ft 0kts
04-Nov-18 14:38 34.937650 -119.680007 298 2205ft 1kts
04-Nov-18 14:39 34.945930 -119.699373 298 2671ft 95kts
04-Nov-18 14:40 34.960747 -119.727157 302 3670ft 99kts
04-Nov-18 14:41 34.978661 -119.752898 303 4557ft 101kts
04-Nov-18 14:42 34.994632 -119.780793 301 5427ft 96kts
04-Nov-18 14:43 35.009868 -119.807921 298 6206ft 95kts
04-Nov-18 14:44 35.025371 -119.835295 302 6917ft 101kts
04-Nov-18 14:45 35.045507 -119.860073 329 6806ft 108kts
04-Nov-18 14:46 35.072007 -119.877465 324 6580ft 109kts
04-Nov-18 14:47 35.099169 -119.893117 346 6363ft 116kts
04-Nov-18 14:48 35.125922 -119.913046 315 6497ft 121kts
04-Nov-18 14:49 35.153524 -119.939505 321 6728ft 141kts
04-Nov-18 14:50 35.189389 -119.966029 331 6425ft 157kts
04-Nov-18 14:51 35.235282 -119.993348 330 6263ft 157kts
04-Nov-18 14:52 35.267060 -120.012365 330 6359ft 147kts
04-Nov-18 14:53 35.303241 -120.034173 330 6461ft 146kts
04-Nov-18 14:54 35.339981 -120.056345 330 6461ft 148kts
04-Nov-18 14:55 35.373877 -120.083077 302 6464ft 146kts
04-Nov-18 14:56 35.388662 -120.128920 276 6461ft 150kts
04-Nov-18 14:57 35.388222 -120.180699 282 6456ft 151kts
04-Nov-18 14:58 35.399101 -120.230062 289 6460ft 150kts
04-Nov-18 14:59 35.410522 -120.279018 290 6459ft 150kts
04-Nov-18 15:00 35.428123 -120.324604 304 6460ft 148kts
04-Nov-18 15:01 35.450064 -120.367064 304 6460ft 148kts
04-Nov-18 15:02 35.466482 -120.412213 275 6463ft 153kts
04-Nov-18 15:03 35.463149 -120.464553 264 6458ft 156kts
04-Nov-18 15:04 35.452116 -120.515686 246 6460ft 161kts
04-Nov-18 15:05 35.430070 -120.563264 246 6461ft 161kts
04-Nov-18 15:06 35.407837 -120.611029 246 6460ft 161kts
04-Nov-18 15:07 35.386138 -120.657651 245 6461ft 161kts
04-Nov-18 15:08 35.363891 -120.705464 245 6462ft 162kts
04-Nov-18 15:09 35.341573 -120.753456 245 6462ft 162kts
04-Nov-18 15:10 35.338682 -120.800931 319 6481ft 146kts
04-Nov-18 15:11 35.373044 -120.787178 63 6488ft 167kts
04-Nov-18 15:12 35.354361 -120.734951 130 6494ft 181kts
04-Nov-18 15:13 35.318704 -120.692274 159 6174ft 181kts
04-Nov-18 15:14 35.296198 -120.723342 305 5477ft 143kts
04-Nov-18 15:15 35.317035 -120.700592 122 4484ft 186kts
04-Nov-18 15:16 35.298913 -120.719418 334 3626ft 146kts
04-Nov-18 15:17 35.302277 -120.683450 150 2528ft 187kts
04-Nov-18 15:18 35.260556 -120.654647 131 2007ft 156kts
04-Nov-18 15:19 35.241745 -120.612997 115 1486ft 131kts
04-Nov-18 15:20 35.218172 -120.586925 202 1149ft 114kts
04-Nov-18 15:21 35.220024 -120.610670 304 942ft 76kts
04-Nov-18 15:22 35.231661 -120.631007 304 292ft 71kts
04-Nov-18 15:23 35.237840 -120.639923 13 179ft 0kts
04-Nov-18 15:24 35.238713 -120.639493 31 179ft 0kts

Navigation Log

Ident Type
1. L88 Airport
2. KSBP Airport